createdAt,value
2023-04-06T00:02:10.664Z,6.00
2023-04-06T00:07:12.777Z,5.90
2023-04-06T00:12:14.752Z,5.90
2023-04-06T00:17:16.539Z,6.10
2023-04-06T00:22:18.362Z,6.10
2023-04-06T00:27:20.590Z,6.10
2023-04-06T00:32:22.519Z,6.10
2023-04-06T00:37:24.429Z,6.00
2023-04-06T00:42:27.177Z,6.00
2023-04-06T00:47:29.651Z,6.10
2023-04-06T00:52:31.529Z,6.10
2023-04-06T00:57:33.332Z,6.20
2023-04-06T01:02:35.220Z,6.10
2023-04-06T01:07:37.023Z,6.00
2023-04-06T01:12:39.849Z,6.00
2023-04-06T01:17:42.440Z,5.80
2023-04-06T01:22:44.382Z,5.80
2023-04-06T01:27:46.636Z,5.90
2023-04-06T01:32:48.671Z,6.00
2023-04-06T01:37:50.519Z,6.10
2023-04-06T01:42:52.321Z,6.30
2023-04-06T01:47:54.255Z,6.40
2023-04-06T01:52:56.079Z,6.30
2023-04-06T01:57:57.947Z,6.50
2023-04-06T02:02:59.886Z,6.60
2023-04-06T02:08:01.702Z,6.50
2023-04-06T02:13:03.611Z,6.60
2023-04-06T02:18:05.708Z,6.70
2023-04-06T02:23:08.054Z,6.70
2023-04-06T02:28:09.891Z,6.40
2023-04-06T02:33:11.652Z,6.20
2023-04-06T02:38:13.405Z,6.10
2023-04-06T02:43:16.469Z,6.20
2023-04-06T02:48:18.234Z,6.20
2023-04-06T02:53:20.025Z,6.30
2023-04-06T02:58:21.857Z,6.40
2023-04-06T03:03:23.910Z,6.50
2023-04-06T03:08:26.050Z,6.50
2023-04-06T03:13:27.841Z,6.50
2023-04-06T03:18:29.621Z,6.50
2023-04-06T03:23:31.421Z,6.60
2023-04-06T03:28:33.354Z,6.50
2023-04-06T03:33:35.282Z,6.50
2023-04-06T03:38:37.987Z,6.40
2023-04-06T03:43:40.955Z,6.50
2023-04-06T03:48:42.779Z,6.60
2023-04-06T03:53:44.571Z,6.60
2023-04-06T03:58:46.620Z,6.50
2023-04-06T04:03:51.462Z,6.60
2023-04-06T04:08:53.798Z,6.50
2023-04-06T04:13:55.754Z,6.60
2023-04-06T04:18:59.242Z,6.50
2023-04-06T04:24:02.317Z,6.50
2023-04-06T04:29:04.123Z,6.50
2023-04-06T04:34:07.790Z,6.50
2023-04-06T04:39:09.923Z,6.50
2023-04-06T04:44:11.879Z,6.60
2023-04-06T04:49:13.736Z,6.50
2023-04-06T04:54:15.667Z,6.60
2023-04-06T04:59:17.700Z,6.70
2023-04-06T05:04:19.899Z,6.60
2023-04-06T05:09:21.815Z,6.60
2023-04-06T05:14:23.734Z,6.70
2023-04-06T05:19:25.731Z,6.70
2023-04-06T05:24:27.574Z,6.80
2023-04-06T05:29:30.194Z,6.80
2023-04-06T05:34:32.418Z,6.70
2023-04-06T05:39:34.349Z,6.80
2023-04-06T05:44:38.331Z,6.80
2023-04-06T05:49:40.191Z,6.80
2023-04-06T05:54:42.155Z,7.00
2023-04-06T05:59:44.058Z,7.10
2023-04-06T06:04:46.011Z,7.20
2023-04-06T06:09:47.818Z,7.20
2023-04-06T06:14:49.682Z,7.20
2023-04-06T06:19:51.517Z,7.30
2023-04-06T06:24:53.301Z,7.50
2023-04-06T06:29:55.112Z,7.50
2023-04-06T06:34:56.942Z,7.50
2023-04-06T06:39:58.755Z,7.60
2023-04-06T06:45:00.837Z,7.70
2023-04-06T06:50:04.182Z,7.80
2023-04-06T06:55:06.317Z,7.80
2023-04-06T07:00:09.685Z,7.80
2023-04-06T07:05:26.079Z,7.90
2023-04-06T07:10:29.116Z,7.90
2023-04-06T07:15:31.359Z,7.90
2023-04-06T07:20:33.312Z,8.00
2023-04-06T07:25:35.299Z,8.00
2023-04-06T07:30:38.862Z,7.90
2023-04-06T07:35:40.967Z,7.80
2023-04-06T07:40:42.967Z,7.70
2023-04-06T07:45:44.947Z,7.80
2023-04-06T07:50:47.006Z,7.80
2023-04-06T07:55:48.893Z,7.90
2023-04-06T08:00:51.079Z,8.00
2023-04-06T08:05:56.257Z,8.00
2023-04-06T08:11:00.686Z,8.10
2023-04-06T08:16:03.956Z,8.20
2023-04-06T08:21:05.919Z,8.20
2023-04-06T08:26:08.016Z,8.30
2023-04-06T08:31:09.924Z,8.40
2023-04-06T08:36:13.976Z,8.60
2023-04-06T08:41:17.680Z,8.40
2023-04-06T08:46:19.914Z,8.50
2023-04-06T08:51:23.967Z,8.50
2023-04-06T08:56:27.555Z,8.60
2023-04-06T09:01:30.631Z,8.70
2023-04-06T09:06:32.873Z,8.60
2023-04-06T09:11:47.413Z,8.70
2023-04-06T09:16:49.250Z,8.70
2023-04-06T09:21:51.322Z,8.70
2023-04-06T09:26:53.167Z,8.90
2023-04-06T09:32:07.247Z,8.80
2023-04-06T09:37:19.407Z,8.90
2023-04-06T09:42:27.385Z,8.90
2023-04-06T09:47:31.321Z,8.90
2023-04-06T09:52:38.328Z,8.90
2023-04-06T09:57:51.442Z,9.10
2023-04-06T10:03:20.920Z,9.10
2023-04-06T10:08:25.434Z,8.90
2023-04-06T10:13:27.764Z,9.00
2023-04-06T10:18:29.954Z,8.90
2023-04-06T10:23:38.311Z,9.00
2023-04-06T10:28:42.991Z,9.00
2023-04-06T10:34:01.691Z,8.80
2023-04-06T10:39:05.973Z,8.80
2023-04-06T10:44:08.259Z,8.80
2023-04-06T10:49:13.805Z,8.70
2023-04-06T10:54:17.836Z,8.70
2023-04-06T10:59:21.941Z,8.90
2023-04-06T11:04:24.541Z,9.10
2023-04-06T11:09:27.800Z,8.90
2023-04-06T11:14:29.585Z,9.00
2023-04-06T11:19:32.936Z,9.10
2023-04-06T11:24:35.159Z,9.10
2023-04-06T11:29:39.039Z,9.00
2023-04-06T11:34:41.990Z,9.00
2023-04-06T11:39:52.015Z,8.90
2023-04-06T11:45:01.398Z,9.00
2023-04-06T11:50:11.536Z,9.00
2023-04-06T11:55:18.812Z,9.00
2023-04-06T12:00:22.117Z,8.90
2023-04-06T12:05:24.905Z,8.90
2023-04-06T12:10:26.750Z,9.00
2023-04-06T12:15:28.600Z,9.00
2023-04-06T12:20:30.846Z,9.00
2023-04-06T12:25:32.680Z,9.00
2023-04-06T12:30:36.659Z,9.20
2023-04-06T12:35:38.522Z,9.10
2023-04-06T12:40:40.853Z,9.20
2023-04-06T12:45:42.831Z,9.90
2023-04-06T12:50:44.598Z,9.50
2023-04-06T12:55:46.606Z,9.40
2023-04-06T13:00:51.830Z,9.20
2023-04-06T13:05:53.717Z,9.40
2023-04-06T13:10:55.865Z,9.50
2023-04-06T13:16:07.212Z,9.40
2023-04-06T13:21:09.183Z,9.40
2023-04-06T13:26:10.989Z,9.30
2023-04-06T13:31:13.048Z,9.10
2023-04-06T13:36:17.814Z,9.20
2023-04-06T13:41:24.329Z,9.20
2023-04-06T13:46:28.868Z,9.10
2023-04-06T13:51:31.799Z,9.10
2023-04-06T13:56:33.579Z,9.20
2023-04-06T14:01:35.549Z,9.10
2023-04-06T14:06:38.273Z,9.10
2023-04-06T14:11:40.069Z,9.20
2023-04-06T14:16:45.095Z,9.20
2023-04-06T14:21:47.027Z,9.20
2023-04-06T14:26:49.002Z,9.20
2023-04-06T14:31:50.761Z,9.30
2023-04-06T14:36:52.594Z,9.30
2023-04-06T14:41:54.366Z,9.20
2023-04-06T14:46:56.794Z,9.30
2023-04-06T14:52:00.177Z,9.30
2023-04-06T14:57:02.922Z,9.10
2023-04-06T15:02:05.041Z,9.20
2023-04-06T15:07:06.888Z,9.30
2023-04-06T15:12:08.749Z,9.30
2023-04-06T15:17:10.560Z,9.40
2023-04-06T15:22:12.471Z,9.40
2023-04-06T15:27:14.282Z,9.40
2023-04-06T15:32:16.195Z,9.60
2023-04-06T15:37:18.043Z,9.50
2023-04-06T15:42:19.787Z,9.60
2023-04-06T15:47:21.942Z,9.60
2023-04-06T15:52:23.962Z,9.60
2023-04-06T15:57:25.901Z,9.60
2023-04-06T16:02:28.322Z,9.80
2023-04-06T16:07:31.936Z,9.80
2023-04-06T16:12:34.063Z,9.80
2023-04-06T16:17:35.990Z,9.80
2023-04-06T16:22:37.999Z,9.80
2023-04-06T16:27:39.764Z,9.80
2023-04-06T16:32:43.222Z,9.90
2023-04-06T16:37:46.798Z,9.90
2023-04-06T16:42:48.560Z,9.90
2023-04-06T16:47:50.783Z,10.00
2023-04-06T16:52:52.606Z,10.00
2023-04-06T16:57:57.632Z,10.00
2023-04-06T17:02:59.597Z,10.10
2023-04-06T17:08:01.583Z,10.10
2023-04-06T17:13:03.603Z,10.10
2023-04-06T17:18:05.613Z,10.10
2023-04-06T17:23:07.418Z,10.10
2023-04-06T17:28:09.280Z,10.00
2023-04-06T17:33:11.097Z,10.10
2023-04-06T17:38:12.904Z,10.10
2023-04-06T17:43:14.848Z,10.10
2023-04-06T17:48:16.998Z,10.10
2023-04-06T17:53:20.620Z,10.10
2023-04-06T17:58:22.656Z,10.10
2023-04-06T18:03:24.574Z,10.20
2023-04-06T18:08:26.401Z,10.10
2023-04-06T18:13:28.215Z,10.20
2023-04-06T18:18:30.012Z,10.20
2023-04-06T18:23:33.140Z,10.20
2023-04-06T18:28:34.940Z,10.30
2023-04-06T18:33:36.686Z,10.30
2023-04-06T18:38:48.085Z,10.30
2023-04-06T18:43:49.992Z,10.20
2023-04-06T18:48:51.901Z,10.20
2023-04-06T18:53:53.741Z,10.20
2023-04-06T18:58:56.259Z,10.20
2023-04-06T19:04:00.005Z,10.20
2023-04-06T19:09:05.037Z,10.20
2023-04-06T19:14:06.959Z,10.10
2023-04-06T19:19:12.870Z,10.10
2023-04-06T19:24:14.747Z,10.10
2023-04-06T19:29:17.411Z,10.00
2023-04-06T19:34:19.387Z,10.10
2023-04-06T19:39:21.167Z,10.10
2023-04-06T19:44:23.277Z,10.00
2023-04-06T19:49:28.302Z,10.00
2023-04-06T19:54:30.254Z,9.80
2023-04-06T19:59:34.477Z,9.90
2023-04-06T20:04:36.574Z,9.90
2023-04-06T20:09:38.571Z,9.90
2023-04-06T20:14:40.434Z,10.00
2023-04-06T20:19:42.202Z,10.00
2023-04-06T20:24:44.246Z,10.00
2023-04-06T20:29:46.189Z,10.00
2023-04-06T20:34:48.892Z,9.90
2023-04-06T20:39:51.373Z,9.90
2023-04-06T20:44:53.765Z,9.90
2023-04-06T20:49:56.078Z,9.90
2023-04-06T20:54:57.909Z,10.00
2023-04-06T20:59:59.763Z,9.90
2023-04-06T21:05:01.574Z,9.90
2023-04-06T21:10:03.909Z,9.90
2023-04-06T21:15:06.403Z,9.70
2023-04-06T21:20:09.520Z,9.80
2023-04-06T21:25:12.710Z,9.80
2023-04-06T21:30:15.076Z,9.80
2023-04-06T21:35:16.924Z,9.70
2023-04-06T21:40:20.871Z,9.70
2023-04-06T21:45:22.609Z,9.70
2023-04-06T21:50:24.437Z,9.60
2023-04-06T21:55:26.277Z,9.50
2023-04-06T22:00:28.024Z,9.60
2023-04-06T22:05:29.995Z,9.60
2023-04-06T22:10:31.978Z,9.50
2023-04-06T22:15:34.204Z,9.50
2023-04-06T22:20:36.027Z,9.40
2023-04-06T22:25:37.845Z,9.40
2023-04-06T22:30:39.743Z,9.40
2023-04-06T22:35:41.634Z,9.30
2023-04-06T22:40:43.417Z,9.40
2023-04-06T22:45:45.182Z,9.50
2023-04-06T22:50:46.957Z,9.40
2023-04-06T22:55:48.685Z,9.30
2023-04-06T23:00:50.534Z,9.30
2023-04-06T23:05:52.382Z,9.30
2023-04-06T23:10:54.139Z,9.30
2023-04-06T23:15:56.027Z,9.40
2023-04-06T23:20:57.801Z,9.40
2023-04-06T23:25:59.596Z,9.50
2023-04-06T23:31:01.455Z,9.40
2023-04-06T23:36:03.386Z,9.40
2023-04-06T23:41:05.602Z,9.40
2023-04-06T23:46:07.549Z,9.40
2023-04-06T23:51:09.409Z,9.40
2023-04-06T23:56:11.175Z,9.30
